Time;durP1;ratioP1;P1;durP2;ratioP2;P2;SDS_P1;SDS_P2;PMS_P1;PMS_P2;Temp;Humidity;BMP_temperature;BMP_pressure;BME280_temperature;BME280_humidity;BME280_pressure;Samples;Min_cycle;Max_cycle;Signal;HPM_P1;HPM_P2
2022/08/16 00:02:03;;;;;;;8.15;5.75;;;;;;;23.51;64.84;99689.36;1735592;81;21114;-47
2022/08/16 00:04:29;;;;;;;9.40;6.17;;;;;;;23.48;64.95;99693.83;1762886;80;21058;-48
2022/08/16 00:06:57;;;;;;;8.55;6.25;;;;;;;23.43;65.23;99704.42;1712776;81;21059;-47
2022/08/16 00:09:23;;;;;;;7.60;5.28;;;;;;;23.45;65.46;99705.55;1700550;82;21121;-48
2022/08/16 00:11:50;;;;;;;8.58;5.47;;;;;;;23.47;65.48;99706.14;1734488;81;21065;-47
2022/08/16 00:14:22;;;;;;;10.78;5.87;;;;;;;23.50;65.41;99708.38;1701956;82;21732;-47
2022/08/16 00:16:48;;;;;;;8.50;5.28;;;;;;;23.52;65.60;99708.47;1728502;80;21163;-47
2022/08/16 00:19:20;;;;;;;8.88;6.28;;;;;;;23.51;65.44;99706.81;1721711;82;21066;-48
2022/08/16 00:21:46;;;;;;;9.23;5.37;;;;;;;23.49;65.35;99706.75;1705808;81;21046;-48
2022/08/16 00:24:15;;;;;;;12.78;5.55;;;;;;;23.47;65.59;99706.14;1704128;83;21102;-47
2022/08/16 00:26:42;;;;;;;8.03;5.95;;;;;;;23.43;65.52;99697.72;1719799;82;21125;-47
2022/08/16 00:29:10;;;;;;;9.78;5.53;;;;;;;23.43;65.30;99698.25;1736476;82;21053;-47
2022/08/16 00:31:37;;;;;;;7.97;5.30;;;;;;;23.47;65.31;99692.21;1732830;81;21106;-47
2022/08/16 00:34:03;;;;;;;8.75;5.53;;;;;;;23.50;65.33;99690.42;1733548;81;21165;-48
2022/08/16 00:36:30;;;;;;;8.45;5.60;;;;;;;23.53;65.36;99690.48;1715829;81;21145;-47
2022/08/16 00:38:57;;;;;;;9.93;6.12;;;;;;;23.54;65.36;99694.28;1729859;81;21149;-47
2022/08/16 00:41:23;;;;;;;7.85;5.45;;;;;;;23.55;65.56;99691.07;1746818;81;21149;-47
2022/08/16 00:43:51;;;;;;;6.95;4.75;;;;;;;23.59;65.38;99694.13;1697204;82;21054;-47
2022/08/16 00:46:33;;;;;;;10.30;5.80;;;;;;;23.66;65.13;99701.59;1734828;81;21148;-47
2022/08/16 00:49:00;;;;;;;8.58;5.47;;;;;;;23.69;65.16;99711.89;1677798;84;21106;-47
2022/08/16 00:51:27;;;;;;;7.42;4.90;;;;;;;23.71;63.90;99707.11;1731174;81;21147;-47
2022/08/16 00:53:54;;;;;;;6.90;4.50;;;;;;;23.71;62.66;99703.89;1699053;83;21055;-47
2022/08/16 00:56:25;;;;;;;8.63;4.50;;;;;;;23.73;61.69;99707.16;1731009;80;21081;-47
2022/08/16 00:58:52;;;;;;;10.08;4.50;;;;;;;23.72;60.41;99704.70;1701767;83;21157;-47
2022/08/16 01:01:18;;;;;;;12.37;4.17;;;;;;;23.76;59.97;99703.22;1714738;82;21057;-47
2022/08/16 01:03:49;;;;;;;8.58;4.85;;;;;;;23.77;59.40;99712.09;1738834;81;21149;-47
2022/08/16 01:06:17;;;;;;;7.70;4.85;;;;;;;23.78;58.34;99718.58;1742142;80;21012;-47
2022/08/16 01:08:46;;;;;;;10.18;4.97;;;;;;;23.79;58.12;99728.80;1739067;81;21043;-47
2022/08/16 01:11:13;;;;;;;11.78;4.80;;;;;;;23.81;57.87;99740.97;1740676;81;21372;-48
2022/08/16 01:13:39;;;;;;;7.65;4.35;;;;;;;23.82;57.85;99741.30;1743515;81;21094;-47
2022/08/16 01:16:13;;;;;;;8.48;4.40;;;;;;;23.83;57.65;99739.43;1734895;81;21185;-48
2022/08/16 01:18:47;;;;;;;8.48;4.40;;;;;;;23.82;57.41;99733.25;1726717;82;21068;-47
2022/08/16 01:21:40;;;;;;;9.85;4.40;;;;;;;23.81;57.18;99732.91;1717118;81;21134;-47
2022/08/16 01:24:29;;;;;;;11.57;4.70;;;;;;;23.80;57.02;99731.25;1718677;82;21073;-47
2022/08/16 01:27:04;;;;;;;8.80;5.00;;;;;;;23.79;56.95;99726.95;1706772;82;21055;-50
2022/08/16 01:29:48;;;;;;;12.37;5.12;;;;;;;23.79;57.00;99728.80;1727814;82;22389;-47
2022/08/16 01:32:15;;;;;;;9.20;5.12;;;;;;;23.77;57.18;99729.05;1711406;81;21541;-49
2022/08/16 01:34:42;;;;;;;7.85;4.60;;;;;;;23.76;57.23;99719.87;1727658;82;21596;-48
2022/08/16 01:37:10;;;;;;;8.85;4.87;;;;;;;23.73;57.35;99716.56;1700576;82;21094;-49
2022/08/16 01:39:37;;;;;;;10.78;4.28;;;;;;;23.72;57.56;99721.66;1677958;84;21306;-47
2022/08/16 01:42:07;;;;;;;9.88;5.40;;;;;;;23.75;58.18;99716.34;1725132;81;21743;-47
2022/08/16 01:44:36;;;;;;;16.50;5.33;;;;;;;23.76;58.24;99719.87;1730426;81;21053;-47
2022/08/16 01:47:03;;;;;;;13.50;5.30;;;;;;;23.73;59.04;99723.28;1720473;82;21022;-47
2022/08/16 01:49:33;;;;;;;6.87;4.58;;;;;;;23.71;59.59;99723.22;1749074;81;21514;-47
2022/08/16 01:52:05;;;;;;;8.05;4.67;;;;;;;23.66;60.20;99719.05;1697025;82;21584;-47
2022/08/16 01:54:37;;;;;;;7.70;5.72;;;;;;;23.60;60.17;99710.01;1732255;81;21242;-48
2022/08/16 01:57:04;;;;;;;7.75;4.78;;;;;;;23.55;60.46;99720.11;1720540;81;21093;-47
2022/08/16 01:59:31;;;;;;;11.22;5.30;;;;;;;23.49;60.54;99715.62;1734121;81;21041;-47
2022/08/16 02:01:59;;;;;;;10.50;5.10;;;;;;;23.44;60.56;99707.42;1737275;81;20990;-48
2022/08/16 02:04:27;;;;;;;11.80;4.75;;;;;;;23.44;60.67;99706.61;1717050;82;21133;-48
2022/08/16 02:06:54;;;;;;;10.82;5.03;;;;;;;23.41;60.88;99700.34;1697544;82;22082;-49
2022/08/16 02:09:22;;;;;;;8.78;5.12;;;;;;;23.36;61.23;99695.10;1730810;81;21550;-47
2022/08/16 02:11:57;;;;;;;12.05;5.17;;;;;;;23.33;60.83;99694.73;1741546;80;21061;-48
2022/08/16 02:14:27;;;;;;;11.40;5.00;;;;;;;23.33;60.96;99685.34;1697229;82;21130;-47
2022/08/16 02:16:57;;;;;;;11.15;5.30;;;;;;;23.32;61.11;99686.40;1718024;82;21090;-47
2022/08/16 02:19:26;;;;;;;8.30;5.00;;;;;;;23.31;60.93;99676.70;1728386;82;21276;-47
2022/08/16 02:21:53;;;;;;;8.55;5.33;;;;;;;23.29;60.81;99670.73;1739201;81;21074;-47
2022/08/16 02:24:21;;;;;;;8.28;4.60;;;;;;;23.26;60.06;99672.52;1726473;81;22826;-48
2022/08/16 02:26:48;;;;;;;11.48;5.17;;;;;;;23.23;60.06;99670.28;1732263;81;21054;-47
2022/08/16 02:29:17;;;;;;;10.63;5.33;;;;;;;23.23;60.34;99668.94;1721379;82;21144;-47
2022/08/16 02:31:48;;;;;;;11.90;5.33;;;;;;;23.25;60.42;99666.84;1683156;83;21143;-47
2022/08/16 02:34:14;;;;;;;7.47;5.40;;;;;;;23.26;60.38;99661.25;1732972;81;21089;-47
2022/08/16 02:36:42;;;;;;;11.57;5.10;;;;;;;23.26;60.20;99661.25;1727127;82;21070;-47
2022/08/16 02:39:09;;;;;;;9.60;5.12;;;;;;;23.26;60.13;99657.77;1737686;81;21104;-48
2022/08/16 02:41:37;;;;;;;9.00;5.35;;;;;;;23.24;59.88;99658.52;1743958;80;22251;-47
2022/08/16 02:44:05;;;;;;;9.73;5.37;;;;;;;23.21;59.78;99661.11;1738992;80;21126;-47
2022/08/16 02:46:32;;;;;;;12.50;5.53;;;;;;;23.17;59.90;99653.22;1735568;81;21113;-48
2022/08/16 02:49:00;;;;;;;8.10;4.95;;;;;;;23.15;59.76;99656.66;1741814;81;21101;-47
2022/08/16 02:51:27;;;;;;;6.42;4.25;;;;;;;23.11;59.94;99657.59;1716751;82;21069;-47
2022/08/16 02:53:53;;;;;;;8.88;5.28;;;;;;;23.08;60.41;99660.75;1729873;81;21117;-47
2022/08/16 02:56:22;;;;;;;8.05;5.00;;;;;;;23.09;60.56;99652.98;1737427;81;21172;-47
2022/08/16 02:58:50;;;;;;;11.00;5.12;;;;;;;23.08;60.47;99648.67;1702583;83;21074;-47
2022/08/16 03:01:21;;;;;;;6.83;5.05;;;;;;;23.10;60.09;99653.29;1678627;82;21071;-47
2022/08/16 03:03:48;;;;;;;9.35;5.10;;;;;;;23.08;60.23;99651.86;1708708;82;21049;-47
2022/08/16 03:06:19;;;;;;;7.85;5.42;;;;;;;23.08;60.38;99655.38;1713328;82;21685;-48
2022/08/16 03:08:46;;;;;;;9.63;5.50;;;;;;;23.06;60.37;99654.77;1740317;81;21077;-47
2022/08/16 03:11:12;;;;;;;8.10;5.47;;;;;;;23.05;60.34;99647.74;1695669;83;21054;-48
2022/08/16 03:13:39;;;;;;;8.38;5.60;;;;;;;23.05;60.18;99649.09;1701981;82;21041;-47
2022/08/16 03:16:06;;;;;;;9.38;4.65;;;;;;;23.02;60.20;99639.33;1733694;81;21120;-47
2022/08/16 03:18:32;;;;;;;9.78;5.78;;;;;;;22.98;60.17;99642.45;1739791;81;21121;-47
2022/08/16 03:20:59;;;;;;;9.15;5.20;;;;;;;22.98;60.38;99645.63;1717267;82;21663;-47
2022/08/16 03:23:26;;;;;;;9.78;6.00;;;;;;;23.03;60.34;99643.09;1695359;82;21495;-47
2022/08/16 03:25:53;;;;;;;8.93;5.40;;;;;;;23.05;60.37;99642.87;1722752;82;21027;-47
2022/08/16 03:28:19;;;;;;;7.97;5.67;;;;;;;23.08;60.17;99645.15;1710539;83;21080;-48
2022/08/16 03:30:46;;;;;;;10.43;5.92;;;;;;;23.06;59.90;99645.38;1744444;81;21062;-48
2022/08/16 03:33:12;;;;;;;8.88;5.08;;;;;;;23.06;59.75;99644.03;1705330;82;21148;-47
2022/08/16 03:35:41;;;;;;;11.50;6.00;;;;;;;23.03;60.00;99641.75;1695449;83;21560;-47
2022/08/16 03:38:17;;;;;;;8.77;5.87;;;;;;;23.02;60.01;99639.33;1705710;81;21592;-47
2022/08/16 03:40:45;;;;;;;8.75;5.87;;;;;;;22.98;59.90;99644.28;1749287;81;21110;-47
2022/08/16 03:43:12;;;;;;;10.82;5.47;;;;;;;22.94;59.90;99643.11;1730934;81;21081;-51
2022/08/16 03:45:39;;;;;;;9.10;5.58;;;;;;;22.94;59.74;99647.12;1735772;82;21125;-48
2022/08/16 03:48:07;;;;;;;9.73;6.05;;;;;;;22.99;59.97;99647.28;1717179;81;21055;-47
2022/08/16 03:50:34;;;;;;;8.80;5.58;;;;;;;23.04;59.82;99647.97;1733286;82;21763;-47
2022/08/16 03:53:03;;;;;;;10.88;6.33;;;;;;;23.06;59.94;99649.39;1715760;81;21695;-47
2022/08/16 03:55:30;;;;;;;11.78;6.20;;;;;;;23.08;59.51;99645.15;1706656;83;21050;-47
2022/08/16 03:57:57;;;;;;;11.43;6.08;;;;;;;23.09;59.50;99650.83;1721084;81;21143;-47
2022/08/16 04:00:27;;;;;;;7.25;5.80;;;;;;;23.07;59.53;99646.22;1719940;82;21082;-48
2022/08/16 04:02:57;;;;;;;9.95;6.20;;;;;;;23.06;59.53;99648.55;1705065;81;21097;-47
2022/08/16 04:05:24;;;;;;;8.73;5.53;;;;;;;23.03;59.86;99644.97;1711587;82;21488;-47
2022/08/16 04:07:51;;;;;;;8.80;5.45;;;;;;;23.04;59.88;99644.75;1718682;81;21538;-48
2022/08/16 04:10:18;;;;;;;10.10;5.85;;;;;;;23.10;59.67;99643.90;1730198;81;21130;-47
2022/08/16 04:12:44;;;;;;;9.05;5.45;;;;;;;23.15;59.44;99640.55;1724382;81;21090;-47
2022/08/16 04:15:13;;;;;;;9.48;5.45;;;;;;;23.18;59.48;99639.58;1736238;81;21165;-47
2022/08/16 04:17:42;;;;;;;12.43;5.80;;;;;;;23.22;59.20;99648.50;1720336;81;21050;-47
2022/08/16 04:20:10;;;;;;;7.62;5.50;;;;;;;23.22;59.25;99640.45;1727917;82;21030;-48
2022/08/16 04:22:36;;;;;;;7.87;5.65;;;;;;;23.24;59.57;99637.85;1724556;81;21111;-47
2022/08/16 04:25:05;;;;;;;14.23;6.60;;;;;;;23.24;59.47;99641.88;1724299;81;21050;-48
2022/08/16 04:27:33;;;;;;;11.20;6.15;;;;;;;23.25;59.36;99653.42;1724254;81;21062;-47
2022/08/16 04:30:00;;;;;;;9.35;5.80;;;;;;;23.24;59.41;99644.56;1735581;81;21074;-47
2022/08/16 04:32:27;;;;;;;7.58;4.95;;;;;;;23.28;59.47;99640.91;1715452;82;21124;-47
2022/08/16 04:34:54;;;;;;;10.25;6.00;;;;;;;23.35;59.40;99645.66;1709675;82;21119;-47
2022/08/16 04:37:22;;;;;;;8.90;6.10;;;;;;;23.41;59.30;99654.17;1728368;81;21128;-47
2022/08/16 04:39:50;;;;;;;11.00;5.72;;;;;;;23.46;59.46;99648.94;1709366;83;21133;-47
2022/08/16 04:42:17;;;;;;;8.68;5.85;;;;;;;23.49;59.38;99652.53;1707942;82;21703;-47
2022/08/16 04:44:45;;;;;;;11.15;5.95;;;;;;;23.51;59.45;99657.67;1727961;82;21054;-50
2022/08/16 04:47:12;;;;;;;8.63;5.90;;;;;;;23.52;59.29;99652.61;1683403;83;21141;-47
2022/08/16 04:49:39;;;;;;;10.25;5.97;;;;;;;23.52;59.09;99651.27;1722190;82;21081;-47
2022/08/16 04:52:05;;;;;;;8.75;6.00;;;;;;;23.52;59.25;99658.80;1703098;83;21046;-47
2022/08/16 04:54:32;;;;;;;10.95;6.05;;;;;;;23.54;59.30;99655.35;1692093;83;21158;-47
2022/08/16 04:56:59;;;;;;;8.85;6.42;;;;;;;23.64;59.30;99660.19;1691298;84;21078;-47
2022/08/16 04:59:26;;;;;;;11.53;6.28;;;;;;;23.71;58.95;99673.00;1734208;81;21140;-47
2022/08/16 05:01:55;;;;;;;9.30;6.53;;;;;;;23.77;58.96;99663.73;1731843;81;21529;-47
2022/08/16 05:04:23;;;;;;;8.50;5.75;;;;;;;23.80;58.72;99659.27;1744343;81;21003;-47
2022/08/16 05:06:50;;;;;;;10.58;6.22;;;;;;;23.83;58.75;99661.00;1736534;81;21019;-47
2022/08/16 05:09:24;;;;;;;9.00;6.20;;;;;;;23.86;58.52;99665.92;1720175;81;21099;-47
2022/08/16 05:11:53;;;;;;;12.50;6.80;;;;;;;23.89;58.75;99675.41;1717184;81;21951;-46
2022/08/16 05:14:19;;;;;;;9.53;6.22;;;;;;;23.89;58.44;99680.25;1709220;83;21118;-47
2022/08/16 05:16:46;;;;;;;11.15;6.70;;;;;;;23.90;58.38;99683.20;1714113;83;21046;-47
2022/08/16 05:19:12;;;;;;;12.43;6.37;;;;;;;23.89;58.54;99686.96;1727262;82;21592;-47
2022/08/16 05:21:40;;;;;;;20.68;5.95;;;;;;;23.95;58.51;99690.59;1730519;81;21106;-46
2022/08/16 05:24:10;;;;;;;10.32;5.60;;;;;;;24.05;58.19;99690.86;1724291;81;21233;-47
2022/08/16 05:26:37;;;;;;;11.53;7.33;;;;;;;24.13;57.86;99696.45;1729160;81;21085;-47
2022/08/16 05:29:05;;;;;;;11.85;6.40;;;;;;;24.17;57.54;99698.96;1706643;82;21150;-47
2022/08/16 05:31:32;;;;;;;10.95;6.40;;;;;;;24.21;57.59;99706.88;1743403;81;21669;-47
2022/08/16 05:34:00;;;;;;;10.05;6.35;;;;;;;24.28;57.39;99710.28;1736351;80;21686;-47
2022/08/16 05:36:27;;;;;;;9.18;5.62;;;;;;;24.32;57.58;99709.30;1746708;81;22191;-47
2022/08/16 05:38:54;;;;;;;10.18;6.22;;;;;;;24.37;57.36;99708.08;1726188;82;21050;-47
2022/08/16 05:41:20;;;;;;;7.92;5.75;;;;;;;24.42;57.03;99710.08;1723966;82;21046;-47
2022/08/16 05:43:47;;;;;;;8.50;5.80;;;;;;;24.46;56.73;99709.41;1716553;81;21071;-47
2022/08/16 05:46:18;;;;;;;8.85;6.25;;;;;;;24.51;56.64;99711.41;1722770;81;21081;-47
2022/08/16 05:48:46;;;;;;;8.68;6.10;;;;;;;24.55;56.85;99703.19;1722229;82;21146;-47
2022/08/16 05:51:13;;;;;;;8.75;5.47;;;;;;;24.59;56.61;99704.34;1726164;82;21050;-47
2022/08/16 05:53:40;;;;;;;10.15;6.47;;;;;;;24.61;56.10;99710.34;1722088;81;21102;-47
2022/08/16 05:56:14;;;;;;;10.78;6.08;;;;;;;24.64;55.97;99711.20;1728422;82;21070;-47
2022/08/16 05:58:42;;;;;;;9.35;5.83;;;;;;;24.67;55.55;99704.55;1752632;80;21144;-47
2022/08/16 06:01:11;;;;;;;10.63;6.15;;;;;;;24.68;55.44;99706.20;1744531;81;21091;-47
2022/08/16 06:03:37;;;;;;;8.50;6.92;;;;;;;24.69;55.44;99715.08;1725688;81;21069;-47
2022/08/16 06:06:12;;;;;;;8.08;6.37;;;;;;;24.65;55.36;99714.19;1734976;82;21054;-46
2022/08/16 06:08:38;;;;;;;15.32;6.50;;;;;;;24.61;55.99;99710.34;1732385;81;21065;-46
2022/08/16 06:11:07;;;;;;;12.03;5.95;;;;;;;24.58;56.48;99704.08;1729997;81;21235;-47
2022/08/16 06:13:36;;;;;;;10.78;6.05;;;;;;;24.57;56.60;99713.18;1714179;81;21140;-47
2022/08/16 06:16:05;;;;;;;11.43;6.22;;;;;;;24.57;56.71;99718.56;1734827;81;21066;-47
2022/08/16 06:18:32;;;;;;;14.23;5.78;;;;;;;24.54;56.75;99727.05;1731907;81;21695;-47
2022/08/16 06:20:59;;;;;;;15.45;6.85;;;;;;;24.54;56.88;99739.16;1718184;81;21532;-47
2022/08/16 06:23:26;;;;;;;9.68;6.40;;;;;;;24.53;57.34;99736.19;1739066;81;21540;-46
2022/08/16 06:25:56;;;;;;;10.53;6.30;;;;;;;24.46;59.11;99745.70;1736052;81;21133;-46
2022/08/16 06:28:24;;;;;;;11.78;6.72;;;;;;;24.36;59.77;99737.88;1706915;83;21004;-46
2022/08/16 06:30:50;;;;;;;9.33;5.97;;;;;;;24.29;60.68;99745.53;1738549;81;21049;-46
2022/08/16 06:33:17;;;;;;;13.53;6.42;;;;;;;24.22;60.37;99748.82;1689889;81;21133;-46
2022/08/16 06:35:45;;;;;;;10.05;6.47;;;;;;;24.16;60.94;99751.09;1729400;82;21073;-46
2022/08/16 06:38:11;;;;;;;10.53;6.40;;;;;;;24.08;61.85;99760.81;1732093;81;21734;-46
2022/08/16 06:40:38;;;;;;;9.80;6.62;;;;;;;24.01;62.24;99777.56;1717529;82;21086;-46
2022/08/16 06:43:05;;;;;;;11.97;7.35;;;;;;;23.98;62.46;99782.84;1729772;81;21117;-46
2022/08/16 06:45:43;;;;;;;9.08;6.22;;;;;;;23.96;62.97;99786.82;1721157;81;21070;-46
2022/08/16 06:48:14;;;;;;;8.85;6.33;;;;;;;23.92;63.11;99789.95;1726222;81;21136;-46
2022/08/16 06:50:41;;;;;;;12.10;6.92;;;;;;;23.92;63.10;99802.05;1727163;82;21121;-46
2022/08/16 06:53:07;;;;;;;10.20;7.15;;;;;;;23.91;62.91;99799.58;1745904;80;21043;-46
2022/08/16 06:55:34;;;;;;;11.88;7.87;;;;;;;23.88;62.56;99803.52;1734595;81;21017;-46
2022/08/16 06:58:03;;;;;;;11.12;8.33;;;;;;;23.85;62.07;99806.65;1734700;81;21079;-46
2022/08/16 07:00:30;;;;;;;13.65;8.03;;;;;;;23.82;62.15;99820.55;1713933;81;21327;-46
2022/08/16 07:03:01;;;;;;;14.65;7.90;;;;;;;23.78;62.41;99824.69;1731510;81;21126;-46
2022/08/16 07:05:30;;;;;;;14.47;8.00;;;;;;;23.75;62.41;99822.44;1719879;82;21030;-46
2022/08/16 07:08:10;;;;;;;17.75;8.80;;;;;;;23.76;62.45;99828.13;1726408;81;21023;-47
2022/08/16 07:10:38;;;;;;;12.13;8.03;;;;;;;23.79;62.76;99815.59;1734455;81;21187;-46
2022/08/16 07:13:04;;;;;;;15.72;7.37;;;;;;;23.81;62.53;99832.84;1732180;81;21125;-46
2022/08/16 07:15:33;;;;;;;12.18;6.37;;;;;;;23.78;62.71;99821.19;1735275;81;21193;-46
2022/08/16 07:18:00;;;;;;;10.05;6.22;;;;;;;23.76;63.37;99823.28;1703707;83;21126;-46
2022/08/16 07:20:27;;;;;;;14.78;5.53;;;;;;;23.69;64.25;99830.06;1737380;81;21597;-46
2022/08/16 07:22:56;;;;;;;8.93;5.28;;;;;;;23.61;64.77;99796.78;1741130;81;21058;-47
2022/08/16 07:25:24;;;;;;;8.50;5.17;;;;;;;23.59;64.85;99833.76;1735866;81;21198;-46
2022/08/16 07:27:51;;;;;;;10.85;4.62;;;;;;;23.59;64.89;99812.27;1745593;80;21054;-46
2022/08/16 07:30:19;;;;;;;10.65;5.60;;;;;;;23.55;64.88;99820.80;1739977;81;21029;-46
2022/08/16 07:32:46;;;;;;;10.50;5.10;;;;;;;23.54;65.00;99815.65;1735739;80;21045;-46
2022/08/16 07:35:13;;;;;;;11.75;5.12;;;;;;;23.52;65.24;99829.83;1738232;81;22390;-46
2022/08/16 07:37:40;;;;;;;9.75;4.53;;;;;;;23.55;65.27;99837.41;1712885;81;21157;-46
2022/08/16 07:40:18;;;;;;;9.00;4.87;;;;;;;23.58;65.13;99844.22;1730364;80;21688;-46
2022/08/16 07:42:44;;;;;;;7.40;4.47;;;;;;;23.55;65.27;99838.25;1746654;81;21125;-46
2022/08/16 07:45:11;;;;;;;10.30;4.30;;;;;;;23.54;65.25;99832.58;1722185;82;21081;-46
2022/08/16 07:47:39;;;;;;;9.48;4.05;;;;;;;23.50;65.24;99839.44;1717790;82;21030;-47
2022/08/16 07:50:08;;;;;;;7.22;3.62;;;;;;;23.47;65.34;99843.06;1699110;82;21529;-46
2022/08/16 07:52:34;;;;;;;7.28;2.90;;;;;;;23.46;65.15;99848.97;1710671;81;21796;-47
2022/08/16 07:55:01;;;;;;;8.43;3.62;;;;;;;23.48;64.77;99842.03;1708361;83;21098;-46
2022/08/16 07:57:28;;;;;;;7.85;3.65;;;;;;;23.50;64.88;99841.28;1737924;82;21054;-46
2022/08/16 07:59:54;;;;;;;8.80;2.95;;;;;;;23.47;65.37;99833.66;1739852;81;21061;-46
2022/08/16 08:02:21;;;;;;;6.97;3.00;;;;;;;23.41;65.67;99823.30;1734451;81;21030;-46
2022/08/16 08:04:55;;;;;;;10.35;2.75;;;;;;;23.33;65.66;99827.61;1723775;81;21157;-46
2022/08/16 08:07:23;;;;;;;6.47;2.77;;;;;;;23.24;65.77;99819.55;1713876;81;21111;-46
2022/08/16 08:09:51;;;;;;;6.15;2.55;;;;;;;23.19;65.73;99826.91;1711479;81;21066;-46
2022/08/16 08:12:18;;;;;;;5.28;2.58;;;;;;;23.15;65.69;99821.69;1724914;82;21027;-45
2022/08/16 08:14:46;;;;;;;5.85;2.67;;;;;;;23.10;66.08;99818.81;1725766;81;21144;-46
2022/08/16 08:17:14;;;;;;;4.92;2.40;;;;;;;23.04;66.44;99827.20;1732810;81;21810;-47
2022/08/16 08:19:40;;;;;;;6.17;2.92;;;;;;;23.02;66.72;99826.60;1742168;81;21042;-46
2022/08/16 08:22:09;;;;;;;5.05;2.60;;;;;;;22.99;67.01;99831.87;1709876;81;21123;-46
2022/08/16 08:24:38;;;;;;;7.47;2.67;;;;;;;23.00;67.13;99833.52;1710652;82;21149;-46
2022/08/16 08:27:07;;;;;;;7.08;2.87;;;;;;;23.08;67.15;99829.80;1689071;84;21232;-46
2022/08/16 08:29:35;;;;;;;5.85;2.77;;;;;;;23.13;67.30;99835.82;1716665;80;22228;-46
2022/08/16 08:32:04;;;;;;;6.75;2.80;;;;;;;23.21;67.42;99840.11;1744302;81;21085;-46
2022/08/16 08:34:31;;;;;;;5.12;2.50;;;;;;;23.20;67.40;99843.32;1734797;81;21006;-47
2022/08/16 08:36:58;;;;;;;4.45;2.37;;;;;;;23.18;67.44;99843.54;1733488;81;21045;-46
2022/08/16 08:39:26;;;;;;;6.67;2.70;;;;;;;23.19;67.50;99849.72;1735260;80;21157;-46
2022/08/16 08:41:53;;;;;;;7.12;2.20;;;;;;;23.20;67.53;99844.66;1735155;81;21337;-46
2022/08/16 08:44:21;;;;;;;7.22;2.77;;;;;;;23.25;67.31;99850.20;1731229;81;22207;-46
2022/08/16 08:46:48;;;;;;;6.97;2.47;;;;;;;23.31;67.04;99848.48;1731261;81;21477;-46
2022/08/16 09:11:18;;;;;;;7.62;3.95;;;;;;;23.95;66.53;99879.21;1799588;77;23399;-46
2022/08/16 09:13:47;;;;;;;7.78;3.08;;;;;;;23.87;66.55;99883.84;1782116;79;21085;-46
2022/08/16 09:16:15;;;;;;;5.58;2.98;;;;;;;23.90;66.66;99886.05;1786561;79;22101;-46
2022/08/16 09:18:44;;;;;;;7.70;3.62;;;;;;;23.94;66.65;99879.74;1764531;81;21132;-47
2022/08/16 09:21:11;;;;;;;8.15;3.62;;;;;;;23.99;66.90;99882.58;1772957;78;20977;-46
2022/08/16 09:23:38;;;;;;;5.65;3.30;;;;;;;24.08;66.89;99877.72;1780978;80;21056;-47
2022/08/16 09:26:09;;;;;;;5.28;3.12;;;;;;;24.15;66.58;99884.37;1743704;81;21109;-46
2022/08/16 09:28:37;;;;;;;7.95;3.85;;;;;;;24.18;66.53;99879.36;1753457;80;21082;-46
2022/08/16 09:31:06;;;;;;;6.70;3.70;;;;;;;24.25;66.61;99883.31;1742140;80;21077;-46
2022/08/16 09:33:32;;;;;;;6.22;3.67;;;;;;;24.36;66.70;99884.41;1718323;80;21076;-46
2022/08/16 09:36:00;;;;;;;6.83;3.58;;;;;;;24.43;65.96;99887.86;1769596;79;21007;-46
2022/08/16 09:38:26;;;;;;;7.30;4.22;;;;;;;24.49;66.41;99892.31;1752069;80;21256;-46
2022/08/16 09:40:55;;;;;;;6.10;4.12;;;;;;;24.54;65.97;99896.48;1764897;78;21181;-48
2022/08/16 09:43:22;;;;;;;7.95;4.47;;;;;;;24.59;66.12;99903.91;1720006;82;21003;-46
2022/08/16 09:45:48;;;;;;;8.13;4.05;;;;;;;24.68;66.02;99901.72;1773675;79;21027;-46
2022/08/16 09:48:15;;;;;;;10.28;4.95;;;;;;;24.77;65.36;99899.03;1714787;81;21083;-47
2022/08/16 09:50:42;;;;;;;6.97;4.33;;;;;;;24.81;65.46;99896.16;1773603;80;21057;-46
2022/08/16 09:53:16;;;;;;;8.23;4.35;;;;;;;24.85;65.47;99901.40;1731645;82;21130;-46
2022/08/16 09:55:45;;;;;;;7.65;4.97;;;;;;;24.85;65.13;99901.40;1775959;78;21093;-46
2022/08/16 09:58:12;;;;;;;8.03;4.20;;;;;;;24.84;65.07;99902.44;1739967;79;21097;-47
2022/08/16 10:00:39;;;;;;;8.28;5.25;;;;;;;24.86;65.05;99903.02;1731316;81;21073;-47
2022/08/16 10:03:05;;;;;;;7.53;4.87;;;;;;;24.91;64.78;99901.81;1753783;80;21125;-47
2022/08/16 10:05:35;;;;;;;11.68;5.35;;;;;;;24.96;64.42;99893.87;1755037;80;21140;-47
2022/08/16 10:08:03;;;;;;;7.17;5.35;;;;;;;25.02;64.38;99895.65;1751366;81;21067;-47
2022/08/16 10:10:31;;;;;;;7.20;5.00;;;;;;;25.13;64.56;99899.44;1750355;79;21047;-47
2022/08/16 10:13:14;;;;;;;7.55;5.20;;;;;;;25.25;64.36;99893.23;1745663;81;21057;-47
2022/08/16 10:15:43;;;;;;;6.90;5.22;;;;;;;25.35;64.17;99904.28;1762028;79;21053;-46
2022/08/16 10:18:11;;;;;;;10.15;5.30;;;;;;;25.47;63.83;99896.22;1763710;81;21167;-46
2022/08/16 10:20:43;;;;;;;13.58;6.28;;;;;;;25.50;62.93;99891.72;1738913;79;21521;-47
2022/08/16 10:23:12;;;;;;;17.55;6.35;;;;;;;25.49;62.93;99900.88;1769504;79;21046;-47
2022/08/16 10:25:41;;;;;;;8.25;5.35;;;;;;;25.45;62.79;99902.37;1754813;79;21105;-47
2022/08/16 10:28:08;;;;;;;9.43;5.45;;;;;;;25.31;63.01;99911.20;1752082;79;21098;-46
2022/08/16 10:30:36;;;;;;;6.47;4.90;;;;;;;25.16;63.54;99910.26;1767237;80;21125;-47
2022/08/16 10:33:03;;;;;;;8.50;5.80;;;;;;;25.06;63.83;99919.42;1780183;80;21051;-47
2022/08/16 10:35:31;;;;;;;9.93;6.25;;;;;;;25.01;63.70;99923.60;1774985;80;21102;-46
2022/08/16 10:37:57;;;;;;;8.78;6.42;;;;;;;24.95;63.90;99920.50;1770367;80;21062;-47
2022/08/16 10:40:24;;;;;;;7.70;5.65;;;;;;;24.88;64.42;99925.67;1755245;80;21085;-46
2022/08/16 10:42:50;;;;;;;8.40;6.20;;;;;;;24.81;64.42;99933.83;1767521;80;21525;-47
2022/08/16 10:45:17;;;;;;;8.93;5.75;;;;;;;24.78;64.73;99941.00;1768361;80;21106;-47
2022/08/16 10:47:44;;;;;;;10.35;6.40;;;;;;;24.81;64.37;99945.94;1748881;80;21556;-47
2022/08/16 10:50:11;;;;;;;8.55;5.50;;;;;;;24.79;64.54;99941.31;1752224;80;21074;-47
2022/08/16 10:52:38;;;;;;;7.42;5.80;;;;;;;24.81;64.77;99945.44;1764311;79;21168;-47
2022/08/16 10:55:08;;;;;;;10.43;6.45;;;;;;;24.87;65.01;99943.70;1772709;80;21178;-47
2022/08/16 10:57:34;;;;;;;8.58;5.80;;;;;;;24.90;64.57;99951.31;1748941;80;21560;-47
2022/08/16 11:00:03;;;;;;;8.38;6.17;;;;;;;24.92;64.75;99948.40;1766267;80;21526;-47
2022/08/16 11:02:29;;;;;;;9.05;5.67;;;;;;;24.95;64.77;99951.45;1772807;80;21008;-48
2022/08/16 11:04:55;;;;;;;8.50;5.72;;;;;;;25.03;64.80;99952.98;1769803;80;21062;-47
2022/08/16 11:07:22;;;;;;;8.18;5.25;;;;;;;25.14;64.45;99953.55;1765769;80;21098;-47
2022/08/16 11:09:48;;;;;;;8.73;5.90;;;;;;;25.25;64.36;99956.51;1771471;80;21038;-47
2022/08/16 11:12:16;;;;;;;10.23;6.03;;;;;;;25.31;64.25;99950.25;1772518;78;21097;-47
2022/08/16 11:14:43;;;;;;;8.25;5.50;;;;;;;25.35;64.39;99946.87;1776760;80;21038;-47
2022/08/16 11:17:12;;;;;;;8.60;6.12;;;;;;;25.43;64.12;99943.53;1744886;80;21683;-48
2022/08/16 11:19:40;;;;;;;8.98;6.22;;;;;;;25.47;63.60;99950.92;1743996;80;21153;-48
2022/08/16 11:22:07;;;;;;;10.58;5.90;;;;;;;25.51;62.87;99949.94;1746509;80;21357;-48
2022/08/16 11:24:34;;;;;;;12.28;5.92;;;;;;;25.54;62.63;99950.28;1748347;80;21113;-47
2022/08/16 11:27:01;;;;;;;10.28;6.05;;;;;;;25.55;62.66;99953.28;1744201;81;21000;-48
2022/08/16 11:29:27;;;;;;;7.83;6.15;;;;;;;25.53;62.66;99958.59;1749885;80;21337;-48
2022/08/16 11:31:54;;;;;;;9.83;6.03;;;;;;;25.50;62.85;99959.05;1744869;80;22065;-48
2022/08/16 11:34:20;;;;;;;8.30;5.50;;;;;;;25.45;62.97;99958.39;1724107;81;21096;-48
2022/08/16 11:36:50;;;;;;;9.15;5.92;;;;;;;25.40;62.89;99960.45;1748978;81;21003;-48
2022/08/16 11:39:16;;;;;;;6.92;5.10;;;;;;;25.37;62.76;99960.10;1756973;81;21117;-48
2022/08/16 11:41:43;;;;;;;9.23;6.10;;;;;;;25.36;62.83;99965.99;1753539;79;21018;-47
2022/08/16 11:44:10;;;;;;;7.97;6.67;;;;;;;25.34;63.04;99964.59;1746982;81;21182;-48
2022/08/16 11:46:37;;;;;;;9.30;5.78;;;;;;;25.30;62.84;99965.59;1758953;81;21538;-48
2022/08/16 11:49:04;;;;;;;10.95;5.85;;;;;;;25.24;63.36;99965.13;1748695;79;21059;-48
2022/08/16 11:51:31;;;;;;;8.80;6.35;;;;;;;25.20;63.57;99962.58;1756369;80;21093;-46
2022/08/16 11:53:58;;;;;;;10.88;6.20;;;;;;;25.14;63.85;99970.24;1730491;81;21061;-46
2022/08/16 11:56:24;;;;;;;10.50;6.37;;;;;;;25.11;63.84;99970.70;1765144;80;22041;-46
2022/08/16 11:58:51;;;;;;;9.80;6.58;;;;;;;25.13;63.88;99971.28;1724856;81;21601;-45